<?xml version="1.0" encoding="UTF-8" standalone="no" ?>
<gpx xmlns="http://www.topografix.com/GPX/1/1" xmlns:xsi="http://www.w3.org/2001/XMLSchema-instance" xsi:schemaLocation="http://www.topografix.com/GPX/1/1 http://www.topografix.com/GPX/1/1/gpx.xsd" version="1.1" creator="VisuGPX - https://www.visugpx.com">
  <metadata>
    <name>Grand Eulier</name>
  </metadata>
  <trk>
    <name><![CDATA[Piste0002]]></name>
    <trkseg>
      <trkpt lat="45.14006" lon="5.88834">
        <ele>1422</ele>
        <time>2009-03-01T07:00:01Z</time>
      </trkpt>
      <trkpt lat="45.13984" lon="5.88807">
        <ele>1420</ele>
        <time>2009-03-01T07:14:01Z</time>
      </trkpt>
      <trkpt lat="45.13949" lon="5.88814">
        <ele>1416</ele>
        <time>2009-03-01T07:15:01Z</time>
      </trkpt>
      <trkpt lat="45.13911" lon="5.88817">
        <ele>1440</ele>
        <time>2009-03-01T07:17:01Z</time>
      </trkpt>
      <trkpt lat="45.13879" lon="5.88819">
        <ele>1437</ele>
        <time>2009-03-01T07:18:01Z</time>
      </trkpt>
      <trkpt lat="45.13832" lon="5.88821">
        <ele>1443</ele>
        <time>2009-03-01T07:19:01Z</time>
      </trkpt>
      <trkpt lat="45.13798" lon="5.88826">
        <ele>1462</ele>
        <time>2009-03-01T07:21:01Z</time>
      </trkpt>
      <trkpt lat="45.13759" lon="5.88829">
        <ele>1487</ele>
        <time>2009-03-01T07:25:01Z</time>
      </trkpt>
      <trkpt lat="45.13725" lon="5.88815">
        <ele>1500</ele>
        <time>2009-03-01T07:26:01Z</time>
      </trkpt>
      <trkpt lat="45.13686" lon="5.8882">
        <ele>1512</ele>
        <time>2009-03-01T07:27:01Z</time>
      </trkpt>
      <trkpt lat="45.13656" lon="5.88817">
        <ele>1518</ele>
        <time>2009-03-01T07:28:01Z</time>
      </trkpt>
      <trkpt lat="45.13624" lon="5.88824">
        <ele>1516</ele>
        <time>2009-03-01T07:29:01Z</time>
      </trkpt>
      <trkpt lat="45.13591" lon="5.88824">
        <ele>1512</ele>
        <time>2009-03-01T07:30:01Z</time>
      </trkpt>
      <trkpt lat="45.13562" lon="5.88821">
        <ele>1536</ele>
        <time>2009-03-01T07:31:01Z</time>
      </trkpt>
      <trkpt lat="45.13524" lon="5.88813">
        <ele>1547</ele>
        <time>2009-03-01T07:32:01Z</time>
      </trkpt>
      <trkpt lat="45.13493" lon="5.88806">
        <ele>1551</ele>
        <time>2009-03-01T07:33:01Z</time>
      </trkpt>
      <trkpt lat="45.13463" lon="5.88793">
        <ele>1569</ele>
        <time>2009-03-01T07:34:01Z</time>
      </trkpt>
      <trkpt lat="45.13427" lon="5.88797">
        <ele>1578</ele>
        <time>2009-03-01T07:36:01Z</time>
      </trkpt>
      <trkpt lat="45.13401" lon="5.88785">
        <ele>1594</ele>
        <time>2009-03-01T07:37:01Z</time>
      </trkpt>
      <trkpt lat="45.13359" lon="5.88782">
        <ele>1609</ele>
        <time>2009-03-01T07:38:01Z</time>
      </trkpt>
      <trkpt lat="45.13348" lon="5.88818">
        <ele>1628</ele>
        <time>2009-03-01T07:39:01Z</time>
      </trkpt>
      <trkpt lat="45.13327" lon="5.88862">
        <ele>1643</ele>
        <time>2009-03-01T07:41:01Z</time>
      </trkpt>
      <trkpt lat="45.13337" lon="5.88942">
        <ele>1657</ele>
        <time>2009-03-01T07:42:01Z</time>
      </trkpt>
      <trkpt lat="45.13338" lon="5.88981">
        <ele>1663</ele>
        <time>2009-03-01T07:43:01Z</time>
      </trkpt>
      <trkpt lat="45.1333" lon="5.89023">
        <ele>1677</ele>
        <time>2009-03-01T07:44:01Z</time>
      </trkpt>
      <trkpt lat="45.13322" lon="5.89069">
        <ele>1668</ele>
        <time>2009-03-01T07:45:01Z</time>
      </trkpt>
      <trkpt lat="45.13325" lon="5.89113">
        <ele>1672</ele>
        <time>2009-03-01T07:46:01Z</time>
      </trkpt>
      <trkpt lat="45.13345" lon="5.89146">
        <ele>1674</ele>
        <time>2009-03-01T07:47:01Z</time>
      </trkpt>
      <trkpt lat="45.1336" lon="5.89181">
        <ele>1690</ele>
        <time>2009-03-01T07:47:01Z</time>
      </trkpt>
      <trkpt lat="45.13367" lon="5.89222">
        <ele>1683</ele>
        <time>2009-03-01T07:48:01Z</time>
      </trkpt>
      <trkpt lat="45.13379" lon="5.89267">
        <ele>1693</ele>
        <time>2009-03-01T07:49:01Z</time>
      </trkpt>
      <trkpt lat="45.13396" lon="5.89303">
        <ele>1704</ele>
        <time>2009-03-01T07:50:01Z</time>
      </trkpt>
      <trkpt lat="45.13414" lon="5.89344">
        <ele>1704</ele>
        <time>2009-03-01T07:51:01Z</time>
      </trkpt>
      <trkpt lat="45.13432" lon="5.89382">
        <ele>1715</ele>
        <time>2009-03-01T07:51:01Z</time>
      </trkpt>
      <trkpt lat="45.1344" lon="5.89419">
        <ele>1712</ele>
        <time>2009-03-01T07:52:01Z</time>
      </trkpt>
      <trkpt lat="45.13447" lon="5.89472">
        <ele>1722</ele>
        <time>2009-03-01T07:53:01Z</time>
      </trkpt>
      <trkpt lat="45.13438" lon="5.89509">
        <ele>1743</ele>
        <time>2009-03-01T07:55:01Z</time>
      </trkpt>
      <trkpt lat="45.13445" lon="5.89549">
        <ele>1758</ele>
        <time>2009-03-01T07:56:01Z</time>
      </trkpt>
      <trkpt lat="45.13464" lon="5.89579">
        <ele>1767</ele>
        <time>2009-03-01T07:57:01Z</time>
      </trkpt>
      <trkpt lat="45.13481" lon="5.89616">
        <ele>1769</ele>
        <time>2009-03-01T07:59:01Z</time>
      </trkpt>
      <trkpt lat="45.13446" lon="5.89636">
        <ele>1784</ele>
        <time>2009-03-01T08:00:01Z</time>
      </trkpt>
      <trkpt lat="45.13451" lon="5.89677">
        <ele>1803</ele>
        <time>2009-03-01T08:02:01Z</time>
      </trkpt>
      <trkpt lat="45.13462" lon="5.89718">
        <ele>1795</ele>
        <time>2009-03-01T08:02:01Z</time>
      </trkpt>
      <trkpt lat="45.13481" lon="5.89757">
        <ele>1786</ele>
        <time>2009-03-01T08:03:01Z</time>
      </trkpt>
      <trkpt lat="45.13499" lon="5.89786">
        <ele>1790</ele>
        <time>2009-03-01T08:04:01Z</time>
      </trkpt>
      <trkpt lat="45.13519" lon="5.8982">
        <ele>1788</ele>
        <time>2009-03-01T08:05:01Z</time>
      </trkpt>
      <trkpt lat="45.13508" lon="5.89857">
        <ele>1766</ele>
        <time>2009-03-01T08:06:01Z</time>
      </trkpt>
      <trkpt lat="45.13505" lon="5.8991">
        <ele>1763</ele>
        <time>2009-03-01T08:06:01Z</time>
      </trkpt>
      <trkpt lat="45.13505" lon="5.89991">
        <ele>1754</ele>
        <time>2009-03-01T08:07:01Z</time>
      </trkpt>
      <trkpt lat="45.13492" lon="5.90033">
        <ele>1761</ele>
        <time>2009-03-01T08:08:01Z</time>
      </trkpt>
      <trkpt lat="45.13494" lon="5.90076">
        <ele>1763</ele>
        <time>2009-03-01T08:09:01Z</time>
      </trkpt>
      <trkpt lat="45.13493" lon="5.90115">
        <ele>1793</ele>
        <time>2009-03-01T08:10:01Z</time>
      </trkpt>
      <trkpt lat="45.13472" lon="5.90143">
        <ele>1810</ele>
        <time>2009-03-01T08:12:01Z</time>
      </trkpt>
      <trkpt lat="45.13446" lon="5.90181">
        <ele>1801</ele>
        <time>2009-03-01T08:13:01Z</time>
      </trkpt>
      <trkpt lat="45.13528" lon="5.91131">
        <ele>1980</ele>
        <time>2009-03-01T08:42:01Z</time>
      </trkpt>
      <trkpt lat="45.13531" lon="5.91172">
        <ele>1988</ele>
        <time>2009-03-01T08:44:01Z</time>
      </trkpt>
      <trkpt lat="45.13501" lon="5.9129">
        <ele>2053</ele>
        <time>2009-03-01T08:53:01Z</time>
      </trkpt>
      <trkpt lat="45.1348" lon="5.91354">
        <ele>2062</ele>
        <time>2009-03-01T08:55:01Z</time>
      </trkpt>
      <trkpt lat="45.13473" lon="5.91392">
        <ele>2071</ele>
        <time>2009-03-01T09:02:01Z</time>
      </trkpt>
      <trkpt lat="45.13459" lon="5.91426">
        <ele>2078</ele>
        <time>2009-03-01T09:03:01Z</time>
      </trkpt>
      <trkpt lat="45.13516" lon="5.91518">
        <ele>2120</ele>
        <time>2009-03-01T09:11:01Z</time>
      </trkpt>
      <trkpt lat="45.13538" lon="5.91489">
        <ele>2138</ele>
        <time>2009-03-01T09:12:01Z</time>
      </trkpt>
      <trkpt lat="45.13571" lon="5.91523">
        <ele>2146</ele>
        <time>2009-03-01T09:21:01Z</time>
      </trkpt>
      <trkpt lat="45.13599" lon="5.91528">
        <ele>2169</ele>
        <time>2009-03-01T09:24:01Z</time>
      </trkpt>
      <trkpt lat="45.13628" lon="5.91546">
        <ele>2167</ele>
        <time>2009-03-01T09:32:01Z</time>
      </trkpt>
      <trkpt lat="45.13659" lon="5.91556">
        <ele>2220</ele>
        <time>2009-03-01T09:40:01Z</time>
      </trkpt>
      <trkpt lat="45.13688" lon="5.91574">
        <ele>2233</ele>
        <time>2009-03-01T09:52:01Z</time>
      </trkpt>
      <trkpt lat="45.13721" lon="5.9158">
        <ele>2232</ele>
        <time>2009-03-01T10:02:01Z</time>
      </trkpt>
      <trkpt lat="45.1374" lon="5.91618">
        <ele>2229</ele>
        <time>2009-03-01T10:02:01Z</time>
      </trkpt>
      <trkpt lat="45.13729" lon="5.91665">
        <ele>2208</ele>
        <time>2009-03-01T10:03:01Z</time>
      </trkpt>
      <trkpt lat="45.13705" lon="5.91644">
        <ele>2197</ele>
        <time>2009-03-01T10:04:01Z</time>
      </trkpt>
      <trkpt lat="45.13677" lon="5.91657">
        <ele>2172</ele>
        <time>2009-03-01T10:04:01Z</time>
      </trkpt>
      <trkpt lat="45.13644" lon="5.91664">
        <ele>2168</ele>
        <time>2009-03-01T10:05:01Z</time>
      </trkpt>
      <trkpt lat="45.13641" lon="5.91724">
        <ele>2131</ele>
        <time>2009-03-01T10:08:01Z</time>
      </trkpt>
      <trkpt lat="45.13618" lon="5.91751">
        <ele>2105</ele>
        <time>2009-03-01T10:08:01Z</time>
      </trkpt>
      <trkpt lat="45.13588" lon="5.91765">
        <ele>2085</ele>
        <time>2009-03-01T10:09:01Z</time>
      </trkpt>
      <trkpt lat="45.13575" lon="5.91802">
        <ele>2059</ele>
        <time>2009-03-01T10:12:01Z</time>
      </trkpt>
      <trkpt lat="45.13533" lon="5.91834">
        <ele>2043</ele>
        <time>2009-03-01T10:13:01Z</time>
      </trkpt>
      <trkpt lat="45.135" lon="5.91844">
        <ele>2038</ele>
        <time>2009-03-01T10:13:01Z</time>
      </trkpt>
      <trkpt lat="45.13454" lon="5.91855">
        <ele>2034</ele>
        <time>2009-03-01T10:13:01Z</time>
      </trkpt>
      <trkpt lat="45.13422" lon="5.91849">
        <ele>2009</ele>
        <time>2009-03-01T10:18:01Z</time>
      </trkpt>
      <trkpt lat="45.13375" lon="5.91822">
        <ele>2005</ele>
        <time>2009-03-01T10:19:01Z</time>
      </trkpt>
      <trkpt lat="45.1334" lon="5.91833">
        <ele>2003</ele>
        <time>2009-03-01T10:19:01Z</time>
      </trkpt>
      <trkpt lat="45.13308" lon="5.91828">
        <ele>1999</ele>
        <time>2009-03-01T10:19:01Z</time>
      </trkpt>
      <trkpt lat="45.13251" lon="5.91822">
        <ele>1991</ele>
        <time>2009-03-01T10:19:01Z</time>
      </trkpt>
      <trkpt lat="45.1322" lon="5.91838">
        <ele>1998</ele>
        <time>2009-03-01T10:30:01Z</time>
      </trkpt>
      <trkpt lat="45.13193" lon="5.91842">
        <ele>1999</ele>
        <time>2009-03-01T10:31:01Z</time>
      </trkpt>
      <trkpt lat="45.13136" lon="5.91855">
        <ele>1999</ele>
        <time>2009-03-01T10:32:01Z</time>
      </trkpt>
      <trkpt lat="45.13094" lon="5.91855">
        <ele>1994</ele>
        <time>2009-03-01T10:33:01Z</time>
      </trkpt>
      <trkpt lat="45.13048" lon="5.91855">
        <ele>2001</ele>
        <time>2009-03-01T10:35:01Z</time>
      </trkpt>
      <trkpt lat="45.13003" lon="5.91847">
        <ele>2015</ele>
        <time>2009-03-01T10:36:01Z</time>
      </trkpt>
      <trkpt lat="45.12978" lon="5.91828">
        <ele>2020</ele>
        <time>2009-03-01T10:39:01Z</time>
      </trkpt>
      <trkpt lat="45.1297" lon="5.91871">
        <ele>2023</ele>
        <time>2009-03-01T10:44:01Z</time>
      </trkpt>
      <trkpt lat="45.1298" lon="5.91917">
        <ele>2037</ele>
        <time>2009-03-01T10:45:01Z</time>
      </trkpt>
      <trkpt lat="45.12965" lon="5.91971">
        <ele>2034</ele>
        <time>2009-03-01T10:47:01Z</time>
      </trkpt>
      <trkpt lat="45.12937" lon="5.91979">
        <ele>2063</ele>
        <time>2009-03-01T10:51:01Z</time>
      </trkpt>
      <trkpt lat="45.12906" lon="5.91976">
        <ele>2085</ele>
        <time>2009-03-01T10:55:01Z</time>
      </trkpt>
      <trkpt lat="45.12878" lon="5.91974">
        <ele>2098</ele>
        <time>2009-03-01T10:57:01Z</time>
      </trkpt>
      <trkpt lat="45.12852" lon="5.91961">
        <ele>2103</ele>
        <time>2009-03-01T10:59:01Z</time>
      </trkpt>
      <trkpt lat="45.12821" lon="5.91922">
        <ele>2105</ele>
        <time>2009-03-01T11:01:01Z</time>
      </trkpt>
      <trkpt lat="45.12787" lon="5.91877">
        <ele>2093</ele>
        <time>2009-03-01T11:01:01Z</time>
      </trkpt>
      <trkpt lat="45.12762" lon="5.91853">
        <ele>2090</ele>
        <time>2009-03-01T11:02:01Z</time>
      </trkpt>
      <trkpt lat="45.1274" lon="5.91828">
        <ele>2091</ele>
        <time>2009-03-01T11:03:01Z</time>
      </trkpt>
      <trkpt lat="45.12725" lon="5.91792">
        <ele>2100</ele>
        <time>2009-03-01T11:03:01Z</time>
      </trkpt>
      <trkpt lat="45.12711" lon="5.91747">
        <ele>2104</ele>
        <time>2009-03-01T11:04:01Z</time>
      </trkpt>
      <trkpt lat="45.12692" lon="5.91703">
        <ele>2112</ele>
        <time>2009-03-01T11:05:01Z</time>
      </trkpt>
      <trkpt lat="45.12675" lon="5.91653">
        <ele>2114</ele>
        <time>2009-03-01T11:06:01Z</time>
      </trkpt>
      <trkpt lat="45.12658" lon="5.91612">
        <ele>2119</ele>
        <time>2009-03-01T11:07:01Z</time>
      </trkpt>
      <trkpt lat="45.12663" lon="5.91574">
        <ele>2118</ele>
        <time>2009-03-01T11:08:01Z</time>
      </trkpt>
      <trkpt lat="45.12661" lon="5.91526">
        <ele>2129</ele>
        <time>2009-03-01T11:08:01Z</time>
      </trkpt>
      <trkpt lat="45.12668" lon="5.91478">
        <ele>2128</ele>
        <time>2009-03-01T11:09:01Z</time>
      </trkpt>
      <trkpt lat="45.12658" lon="5.91435">
        <ele>2148</ele>
        <time>2009-03-01T11:10:01Z</time>
      </trkpt>
      <trkpt lat="45.12647" lon="5.91392">
        <ele>2144</ele>
        <time>2009-03-01T11:11:01Z</time>
      </trkpt>
      <trkpt lat="45.12606" lon="5.91315">
        <ele>2152</ele>
        <time>2009-03-01T11:13:01Z</time>
      </trkpt>
      <trkpt lat="45.12565" lon="5.91253">
        <ele>2160</ele>
        <time>2009-03-01T11:14:01Z</time>
      </trkpt>
      <trkpt lat="45.12526" lon="5.91215">
        <ele>2167</ele>
        <time>2009-03-01T11:15:01Z</time>
      </trkpt>
      <trkpt lat="45.12505" lon="5.91183">
        <ele>2174</ele>
        <time>2009-03-01T11:16:01Z</time>
      </trkpt>
      <trkpt lat="45.12526" lon="5.91158">
        <ele>2172</ele>
        <time>2009-03-01T11:24:01Z</time>
      </trkpt>
      <trkpt lat="45.12546" lon="5.91121">
        <ele>2176</ele>
        <time>2009-03-01T11:25:01Z</time>
      </trkpt>
      <trkpt lat="45.12564" lon="5.91063">
        <ele>2185</ele>
        <time>2009-03-01T11:26:01Z</time>
      </trkpt>
      <trkpt lat="45.12579" lon="5.9103">
        <ele>2189</ele>
        <time>2009-03-01T11:26:01Z</time>
      </trkpt>
      <trkpt lat="45.12594" lon="5.90983">
        <ele>2186</ele>
        <time>2009-03-01T11:27:01Z</time>
      </trkpt>
      <trkpt lat="45.12593" lon="5.90941">
        <ele>2181</ele>
        <time>2009-03-01T11:27:01Z</time>
      </trkpt>
      <trkpt lat="45.12597" lon="5.90895">
        <ele>2184</ele>
        <time>2009-03-01T11:28:01Z</time>
      </trkpt>
      <trkpt lat="45.12598" lon="5.90852">
        <ele>2193</ele>
        <time>2009-03-01T11:29:01Z</time>
      </trkpt>
      <trkpt lat="45.126" lon="5.90812">
        <ele>2197</ele>
        <time>2009-03-01T11:30:01Z</time>
      </trkpt>
      <trkpt lat="45.12619" lon="5.9076">
        <ele>2205</ele>
        <time>2009-03-01T11:31:01Z</time>
      </trkpt>
      <trkpt lat="45.12642" lon="5.90738">
        <ele>2202</ele>
        <time>2009-03-01T11:31:01Z</time>
      </trkpt>
      <trkpt lat="45.12662" lon="5.90706">
        <ele>2208</ele>
        <time>2009-03-01T11:33:01Z</time>
      </trkpt>
      <trkpt lat="45.12693" lon="5.90674">
        <ele>2193</ele>
        <time>2009-03-01T11:40:01Z</time>
      </trkpt>
      <trkpt lat="45.12704" lon="5.90633">
        <ele>2179</ele>
        <time>2009-03-01T11:41:01Z</time>
      </trkpt>
      <trkpt lat="45.12712" lon="5.9057">
        <ele>2159</ele>
        <time>2009-03-01T11:41:01Z</time>
      </trkpt>
      <trkpt lat="45.12744" lon="5.9056">
        <ele>2149</ele>
        <time>2009-03-01T11:41:01Z</time>
      </trkpt>
      <trkpt lat="45.12781" lon="5.90535">
        <ele>2143</ele>
        <time>2009-03-01T11:41:01Z</time>
      </trkpt>
      <trkpt lat="45.12825" lon="5.90473">
        <ele>2140</ele>
        <time>2009-03-01T11:41:01Z</time>
      </trkpt>
      <trkpt lat="45.1285" lon="5.90416">
        <ele>2126</ele>
        <time>2009-03-01T11:42:01Z</time>
      </trkpt>
      <trkpt lat="45.12889" lon="5.90378">
        <ele>2123</ele>
        <time>2009-03-01T11:42:01Z</time>
      </trkpt>
      <trkpt lat="45.12925" lon="5.90319">
        <ele>2116</ele>
        <time>2009-03-01T11:43:01Z</time>
      </trkpt>
      <trkpt lat="45.1294" lon="5.90283">
        <ele>2110</ele>
        <time>2009-03-01T11:43:01Z</time>
      </trkpt>
      <trkpt lat="45.12969" lon="5.90279">
        <ele>2037</ele>
        <time>2009-03-01T11:44:01Z</time>
      </trkpt>
      <trkpt lat="45.12992" lon="5.90247">
        <ele>2004</ele>
        <time>2009-03-01T11:44:01Z</time>
      </trkpt>
      <trkpt lat="45.1299" lon="5.90199">
        <ele>1994</ele>
        <time>2009-03-01T11:44:01Z</time>
      </trkpt>
      <trkpt lat="45.12985" lon="5.90151">
        <ele>1988</ele>
        <time>2009-03-01T11:44:01Z</time>
      </trkpt>
      <trkpt lat="45.12983" lon="5.90085">
        <ele>1983</ele>
        <time>2009-03-01T11:44:01Z</time>
      </trkpt>
      <trkpt lat="45.12982" lon="5.90007">
        <ele>1976</ele>
        <time>2009-03-01T11:44:01Z</time>
      </trkpt>
      <trkpt lat="45.12999" lon="5.89963">
        <ele>1968</ele>
        <time>2009-03-01T11:45:01Z</time>
      </trkpt>
      <trkpt lat="45.13014" lon="5.89917">
        <ele>1958</ele>
        <time>2009-03-01T11:45:01Z</time>
      </trkpt>
      <trkpt lat="45.13019" lon="5.89866">
        <ele>1947</ele>
        <time>2009-03-01T11:45:01Z</time>
      </trkpt>
      <trkpt lat="45.13007" lon="5.89806">
        <ele>1923</ele>
        <time>2009-03-01T11:45:01Z</time>
      </trkpt>
      <trkpt lat="45.13005" lon="5.89759">
        <ele>1911</ele>
        <time>2009-03-01T11:45:01Z</time>
      </trkpt>
      <trkpt lat="45.13022" lon="5.89691">
        <ele>1899</ele>
        <time>2009-03-01T11:46:01Z</time>
      </trkpt>
      <trkpt lat="45.1304" lon="5.89614">
        <ele>1889</ele>
        <time>2009-03-01T11:46:01Z</time>
      </trkpt>
      <trkpt lat="45.13025" lon="5.89549">
        <ele>1881</ele>
        <time>2009-03-01T11:46:01Z</time>
      </trkpt>
      <trkpt lat="45.13007" lon="5.89461">
        <ele>1865</ele>
        <time>2009-03-01T11:46:01Z</time>
      </trkpt>
      <trkpt lat="45.12991" lon="5.89401">
        <ele>1856</ele>
        <time>2009-03-01T11:46:01Z</time>
      </trkpt>
      <trkpt lat="45.12992" lon="5.89339">
        <ele>1848</ele>
        <time>2009-03-01T11:46:01Z</time>
      </trkpt>
      <trkpt lat="45.13006" lon="5.89277">
        <ele>1836</ele>
        <time>2009-03-01T11:46:01Z</time>
      </trkpt>
      <trkpt lat="45.12995" lon="5.89236">
        <ele>1810</ele>
        <time>2009-03-01T11:47:01Z</time>
      </trkpt>
      <trkpt lat="45.12996" lon="5.89197">
        <ele>1792</ele>
        <time>2009-03-01T11:47:01Z</time>
      </trkpt>
      <trkpt lat="45.13006" lon="5.89157">
        <ele>1777</ele>
        <time>2009-03-01T11:47:01Z</time>
      </trkpt>
      <trkpt lat="45.12993" lon="5.89097">
        <ele>1757</ele>
        <time>2009-03-01T11:47:01Z</time>
      </trkpt>
      <trkpt lat="45.12988" lon="5.89047">
        <ele>1753</ele>
        <time>2009-03-01T11:48:01Z</time>
      </trkpt>
      <trkpt lat="45.13" lon="5.88978">
        <ele>1749</ele>
        <time>2009-03-01T11:48:01Z</time>
      </trkpt>
      <trkpt lat="45.13015" lon="5.88945">
        <ele>1747</ele>
        <time>2009-03-01T11:48:01Z</time>
      </trkpt>
      <trkpt lat="45.1307" lon="5.889">
        <ele>1742</ele>
        <time>2009-03-01T11:48:01Z</time>
      </trkpt>
      <trkpt lat="45.13099" lon="5.88887">
        <ele>1738</ele>
        <time>2009-03-01T11:49:01Z</time>
      </trkpt>
      <trkpt lat="45.13173" lon="5.88886">
        <ele>1724</ele>
        <time>2009-03-01T11:49:01Z</time>
      </trkpt>
      <trkpt lat="45.13217" lon="5.88928">
        <ele>1713</ele>
        <time>2009-03-01T11:49:01Z</time>
      </trkpt>
      <trkpt lat="45.1326" lon="5.88976">
        <ele>1700</ele>
        <time>2009-03-01T11:49:01Z</time>
      </trkpt>
      <trkpt lat="45.13295" lon="5.89014">
        <ele>1685</ele>
        <time>2009-03-01T11:49:01Z</time>
      </trkpt>
    </trkseg>
  </trk>
</gpx>